Time;durP1;ratioP1;P1;durP2;ratioP2;P2;SDS_P1;SDS_P2;PMS_P1;PMS_P2;Temp;Humidity;BMP_temperature;BMP_pressure;BME280_temperature;BME280_humidity;BME280_pressure;Samples;Min_cycle;Max_cycle;Signal;HPM_P1;HPM_P2
2023/12/13 00:00:13;;;;;;;13.63;5.47;;;6.80;99.90;;;;;;5067885;28;20276;-79
2023/12/13 00:02:39;;;;;;;11.57;5.50;;;6.80;99.90;;;;;;5064967;28;20207;-78
2023/12/13 00:05:07;;;;;;;7.77;5.00;;;6.80;99.90;;;;;;5065030;28;20230;-78
2023/12/13 00:07:34;;;;;;;13.40;5.07;;;6.70;99.90;;;;;;5071641;28;20202;-76
2023/12/13 00:10:01;;;;;;;11.67;5.40;;;6.60;99.90;;;;;;5066318;28;20223;-76
2023/12/13 00:12:27;;;;;;;11.13;4.77;;;6.60;99.90;;;;;;5070053;28;20285;-80
2023/12/13 00:14:55;;;;;;;17.10;5.87;;;6.70;99.90;;;;;;5071625;28;20221;-80
2023/12/13 00:17:23;;;;;;;9.90;5.30;;;6.70;99.90;;;;;;5071497;28;20203;-80
2023/12/13 00:19:50;;;;;;;14.23;4.90;;;6.60;99.90;;;;;;5072613;28;20218;-79
2023/12/13 00:22:17;;;;;;;12.43;5.70;;;6.70;99.90;;;;;;5071750;28;20207;-80
2023/12/13 00:24:43;;;;;;;10.83;5.10;;;6.60;99.90;;;;;;5065745;28;20685;-80
2023/12/13 00:27:10;;;;;;;13.50;5.23;;;6.60;99.90;;;;;;5068880;28;20252;-78
2023/12/13 00:29:37;;;;;;;11.87;5.43;;;6.70;99.90;;;;;;5064513;28;20203;-77
2023/12/13 00:32:05;;;;;;;9.27;4.70;;;6.70;99.90;;;;;;5065987;28;20202;-77
2023/12/13 00:34:33;;;;;;;11.03;4.70;;;6.70;99.90;;;;;;5067226;28;20199;-78
2023/12/13 00:37:00;;;;;;;10.17;4.90;;;6.70;99.90;;;;;;5066401;28;20203;-76
2023/12/13 00:39:27;;;;;;;8.33;4.67;;;6.70;99.90;;;;;;5067606;28;20217;-77
2023/12/13 00:41:53;;;;;;;11.13;4.87;;;6.60;99.90;;;;;;5067926;28;20570;-77
2023/12/13 00:44:20;;;;;;;10.07;5.23;;;6.60;99.90;;;;;;5067484;28;20221;-77
2023/12/13 00:46:47;;;;;;;8.50;4.80;;;6.50;99.90;;;;;;5068756;28;20215;-77
2023/12/13 00:49:14;;;;;;;11.00;5.23;;;6.60;99.90;;;;;;5069345;28;20289;-78
2023/12/13 00:51:42;;;;;;;8.50;4.87;;;6.60;99.90;;;;;;5067766;28;20236;-78
2023/12/13 00:54:09;;;;;;;11.57;4.87;;;6.50;99.90;;;;;;5067045;28;20201;-77
2023/12/13 00:56:36;;;;;;;9.73;4.80;;;6.50;99.90;;;;;;5064347;28;20198;-80
2023/12/13 00:59:03;;;;;;;12.80;5.20;;;6.50;99.90;;;;;;5065043;28;20203;-81
2023/12/13 01:01:30;;;;;;;7.87;4.57;;;6.40;99.90;;;;;;5068972;28;20228;-80
2023/12/13 01:03:57;;;;;;;8.50;5.10;;;6.30;99.90;;;;;;5065446;28;20222;-80
2023/12/13 01:06:24;;;;;;;11.00;5.33;;;6.40;99.90;;;;;;5076505;28;20206;-80
2023/12/13 01:08:52;;;;;;;10.47;5.30;;;6.30;99.90;;;;;;5075860;28;20670;-76
2023/12/13 01:11:21;;;;;;;12.00;6.03;;;6.30;99.90;;;;;;5073386;28;20222;-77
2023/12/13 01:13:48;;;;;;;12.63;5.20;;;6.30;99.90;;;;;;5072093;28;20710;-77
2023/12/13 01:16:16;;;;;;;10.13;5.60;;;6.10;99.90;;;;;;5075037;28;20198;-77
2023/12/13 01:18:42;;;;;;;8.53;5.10;;;6.20;99.90;;;;;;5071746;28;20198;-77
2023/12/13 01:21:09;;;;;;;10.50;5.50;;;6.10;99.90;;;;;;5070308;28;20309;-78
2023/12/13 01:23:36;;;;;;;9.70;5.30;;;6.20;99.90;;;;;;5066926;28;20228;-78
2023/12/13 01:26:05;;;;;;;8.37;5.20;;;6.30;99.90;;;;;;5073408;28;20202;-77
2023/12/13 01:28:31;;;;;;;11.53;5.73;;;6.40;99.90;;;;;;5065138;28;20271;-80
2023/12/13 01:30:58;;;;;;;15.97;6.57;;;6.50;99.90;;;;;;5074128;28;20219;-80
2023/12/13 01:33:25;;;;;;;8.63;5.63;;;6.40;99.90;;;;;;5073384;28;20217;-79
2023/12/13 01:35:52;;;;;;;7.70;5.57;;;6.50;99.90;;;;;;5076339;28;20670;-79
2023/12/13 01:38:19;;;;;;;9.03;5.10;;;6.50;99.90;;;;;;5073463;28;20649;-76
2023/12/13 01:40:51;;;;;;;10.60;6.07;;;6.40;99.90;;;;;;5069159;28;20218;-77
2023/12/13 01:43:24;;;;;;;8.87;5.40;;;6.50;99.90;;;;;;5073173;28;20206;-80
2023/12/13 01:45:53;;;;;;;8.67;5.27;;;6.60;99.90;;;;;;5074538;28;20199;-78
2023/12/13 01:48:22;;;;;;;8.30;5.20;;;6.60;99.90;;;;;;5073705;28;20202;-76
2023/12/13 01:50:49;;;;;;;9.20;5.13;;;6.60;99.90;;;;;;5071938;28;20313;-78
2023/12/13 01:53:18;;;;;;;7.87;5.20;;;6.80;99.90;;;;;;5073572;28;20230;-77
2023/12/13 01:55:45;;;;;;;8.73;5.30;;;6.60;99.90;;;;;;5068704;28;20222;-75
2023/12/13 01:58:12;;;;;;;7.73;5.20;;;6.50;99.90;;;;;;5070052;28;20202;-80
2023/12/13 02:00:42;;;;;;;8.10;5.13;;;6.70;99.90;;;;;;5072611;28;20222;-78
2023/12/13 02:03:12;;;;;;;6.50;4.60;;;6.60;99.90;;;;;;5075060;28;20293;-78
2023/12/13 02:05:40;;;;;;;9.47;5.33;;;6.60;99.90;;;;;;5075831;28;20702;-77
2023/12/13 02:08:07;;;;;;;8.43;5.07;;;6.50;99.90;;;;;;5076036;28;20209;-77
2023/12/13 02:10:34;;;;;;;10.30;5.40;;;6.60;99.90;;;;;;5077625;28;20692;-78
2023/12/13 02:13:02;;;;;;;8.23;5.30;;;6.60;99.90;;;;;;5077544;28;20236;-77
2023/12/13 02:15:29;;;;;;;8.13;5.33;;;6.60;99.90;;;;;;5077410;28;20649;-77
2023/12/13 02:17:57;;;;;;;8.73;5.47;;;6.60;99.90;;;;;;5074476;28;20562;-80
2023/12/13 02:20:23;;;;;;;9.37;5.20;;;6.60;99.90;;;;;;5069463;28;20305;-78
2023/12/13 02:22:51;;;;;;;10.00;5.67;;;6.60;99.90;;;;;;5069987;28;20266;-78
2023/12/13 02:25:26;;;;;;;6.87;5.40;;;6.60;99.90;;;;;;5068743;28;20233;-77
2023/12/13 02:27:53;;;;;;;8.50;5.47;;;6.60;99.90;;;;;;5071530;28;20292;-78
2023/12/13 02:30:21;;;;;;;9.07;5.57;;;6.70;99.90;;;;;;5067703;28;20234;-77
2023/12/13 02:32:48;;;;;;;8.40;5.10;;;6.80;99.90;;;;;;5068127;28;20229;-76
2023/12/13 02:35:16;;;;;;;7.10;4.90;;;6.80;99.90;;;;;;5067022;28;20198;-78
2023/12/13 02:37:45;;;;;;;9.43;4.93;;;6.90;99.90;;;;;;5063721;28;20244;-78
2023/12/13 02:40:14;;;;;;;7.93;4.53;;;7.10;99.90;;;;;;5070070;28;20659;-77
2023/12/13 02:42:41;;;;;;;9.90;5.20;;;7.20;99.90;;;;;;5067448;28;20199;-78
2023/12/13 02:45:11;;;;;;;7.23;5.20;;;7.10;99.90;;;;;;5070074;28;20223;-78
2023/12/13 02:47:41;;;;;;;7.40;5.47;;;7.00;99.90;;;;;;5066896;28;20217;-78
2023/12/13 02:50:08;;;;;;;9.43;5.90;;;6.90;99.90;;;;;;5070509;28;20241;-78
2023/12/13 02:52:35;;;;;;;12.17;6.10;;;7.00;99.90;;;;;;5069239;28;20205;-78
2023/12/13 02:55:02;;;;;;;10.13;5.83;;;6.90;99.90;;;;;;5071791;28;20195;-78
2023/12/13 02:57:30;;;;;;;10.50;5.40;;;6.90;99.90;;;;;;5072014;28;20208;-77
2023/12/13 02:59:57;;;;;;;9.70;6.23;;;7.00;99.90;;;;;;5070589;28;20229;-77
2023/12/13 03:02:23;;;;;;;9.03;5.47;;;7.10;99.90;;;;;;5073066;28;20210;-78
2023/12/13 03:04:50;;;;;;;9.60;6.37;;;7.30;99.90;;;;;;5066035;28;20224;-79
2023/12/13 03:07:17;;;;;;;10.73;6.47;;;7.40;99.90;;;;;;5070600;28;20639;-77
2023/12/13 03:09:44;;;;;;;11.87;7.03;;;7.60;99.90;;;;;;5070454;28;20222;-78
2023/12/13 03:12:11;;;;;;;11.00;7.20;;;7.60;99.90;;;;;;5070748;28;20218;-77
2023/12/13 03:14:39;;;;;;;12.30;6.80;;;7.60;99.90;;;;;;5071952;28;20289;-79
2023/12/13 03:17:06;;;;;;;10.00;6.57;;;7.50;99.90;;;;;;5071040;28;20206;-78
2023/12/13 03:19:32;;;;;;;12.07;6.70;;;7.50;99.90;;;;;;5066649;28;20199;-78
2023/12/13 03:21:59;;;;;;;13.33;6.43;;;7.50;99.90;;;;;;5064863;28;20199;-77
2023/12/13 03:24:26;;;;;;;10.17;5.90;;;7.60;99.90;;;;;;5070740;28;20223;-78
2023/12/13 03:26:53;;;;;;;8.03;5.40;;;7.50;99.90;;;;;;5067882;28;20199;-76
2023/12/13 03:29:20;;;;;;;10.20;6.10;;;7.60;99.90;;;;;;5066615;28;20207;-77
2023/12/13 03:31:48;;;;;;;9.20;5.40;;;7.50;99.90;;;;;;5065327;28;20206;-77
2023/12/13 03:34:15;;;;;;;9.63;6.17;;;7.60;99.90;;;;;;5064188;28;20659;-77
2023/12/13 03:36:42;;;;;;;9.43;5.50;;;7.50;99.90;;;;;;5068245;28;20689;-78
2023/12/13 03:39:08;;;;;;;11.20;5.73;;;7.50;99.90;;;;;;5065260;28;20199;-78
2023/12/13 03:41:35;;;;;;;10.43;5.90;;;7.50;99.90;;;;;;5064525;28;20615;-79
2023/12/13 03:44:02;;;;;;;11.03;6.90;;;7.50;99.90;;;;;;5068264;28;20581;-79
2023/12/13 03:46:29;;;;;;;10.57;5.70;;;7.50;99.90;;;;;;5067983;28;20203;-76
2023/12/13 03:48:57;;;;;;;9.13;5.77;;;7.50;99.90;;;;;;5072513;28;20205;-77
2023/12/13 03:51:24;;;;;;;12.20;6.13;;;7.40;99.90;;;;;;5071241;28;20230;-78
2023/12/13 03:53:50;;;;;;;10.73;5.80;;;7.40;99.90;;;;;;5067304;28;20198;-77
2023/12/13 03:56:17;;;;;;;9.03;5.90;;;7.40;99.90;;;;;;5070708;28;20681;-78
2023/12/13 03:58:44;;;;;;;6.87;4.87;;;7.40;99.90;;;;;;5069333;28;20202;-78
2023/12/13 04:01:11;;;;;;;7.17;5.03;;;7.30;99.90;;;;;;5068607;28;20219;-77
2023/12/13 04:03:37;;;;;;;9.47;5.03;;;7.40;99.90;;;;;;5067491;28;20667;-79
2023/12/13 04:06:07;;;;;;;8.83;5.30;;;7.30;99.90;;;;;;5070567;28;20569;-79
2023/12/13 04:08:33;;;;;;;10.37;5.60;;;7.30;99.90;;;;;;5069715;28;20194;-78
2023/12/13 04:11:00;;;;;;;9.73;5.30;;;7.30;99.90;;;;;;5060865;28;20233;-78
2023/12/13 04:13:27;;;;;;;11.03;5.23;;;7.20;99.90;;;;;;5071828;28;20777;-78
2023/12/13 04:15:54;;;;;;;8.57;5.10;;;7.30;99.90;;;;;;5066550;28;20198;-79
2023/12/13 04:18:20;;;;;;;9.23;5.77;;;7.30;99.90;;;;;;5068333;28;20203;-80
2023/12/13 04:20:47;;;;;;;8.53;5.40;;;7.30;99.90;;;;;;5064536;28;20229;-80
2023/12/13 04:23:15;;;;;;;9.23;5.57;;;7.20;99.90;;;;;;5065014;28;20203;-80
2023/12/13 04:25:42;;;;;;;11.13;5.43;;;7.10;99.90;;;;;;5058473;28;20219;-79
2023/12/13 04:28:09;;;;;;;10.53;4.87;;;7.20;99.90;;;;;;5062780;28;20211;-79
2023/12/13 04:30:36;;;;;;;9.73;5.47;;;7.20;99.90;;;;;;5064864;28;20223;-78
2023/12/13 04:33:02;;;;;;;11.47;5.87;;;7.10;99.90;;;;;;5066577;28;20205;-80
2023/12/13 04:35:32;;;;;;;8.60;5.00;;;7.10;99.90;;;;;;5065454;28;20199;-80
2023/12/13 04:37:59;;;;;;;7.40;4.77;;;7.10;99.90;;;;;;5066067;28;20199;-79
2023/12/13 04:40:28;;;;;;;9.60;5.47;;;7.10;99.90;;;;;;5062057;28;20312;-80
2023/12/13 04:42:55;;;;;;;7.33;4.80;;;7.10;99.90;;;;;;5062844;28;20210;-80
2023/12/13 04:45:21;;;;;;;8.60;5.07;;;7.10;99.90;;;;;;5068560;28;20282;-80
2023/12/13 04:47:48;;;;;;;8.47;4.57;;;7.10;99.90;;;;;;5066302;28;20313;-80
2023/12/13 04:50:15;;;;;;;10.03;5.23;;;7.00;99.90;;;;;;5068117;28;20236;-80
2023/12/13 04:52:42;;;;;;;6.60;3.90;;;7.10;99.90;;;;;;5065219;28;20546;-80
2023/12/13 04:55:09;;;;;;;6.90;4.57;;;7.10;99.90;;;;;;5068928;28;20526;-79
2023/12/13 04:57:37;;;;;;;6.77;4.80;;;7.10;99.90;;;;;;5070200;28;20202;-79
2023/12/13 05:00:06;;;;;;;6.87;4.20;;;7.10;99.90;;;;;;5070087;28;20230;-80
2023/12/13 05:02:32;;;;;;;6.73;4.27;;;7.00;99.90;;;;;;5070299;28;20611;-79
2023/12/13 05:04:59;;;;;;;6.00;4.03;;;7.00;99.90;;;;;;5069309;28;20712;-79
2023/12/13 05:07:27;;;;;;;6.03;3.90;;;7.10;99.90;;;;;;5070765;28;20205;-80
2023/12/13 05:09:54;;;;;;;6.17;4.20;;;7.10;99.90;;;;;;5069621;28;20234;-79
2023/12/13 05:12:21;;;;;;;4.93;3.87;;;7.10;99.90;;;;;;5072102;28;20206;-80
2023/12/13 05:14:50;;;;;;;4.13;3.07;;;7.20;99.90;;;;;;5071578;28;20206;-80
2023/12/13 05:17:16;;;;;;;6.97;3.50;;;7.20;99.90;;;;;;5071629;28;20233;-80
2023/12/13 05:19:43;;;;;;;4.40;3.20;;;7.10;99.90;;;;;;5063174;28;20229;-80
2023/12/13 05:22:10;;;;;;;4.97;3.60;;;7.10;99.90;;;;;;5059952;28;20205;-80
2023/12/13 05:24:37;;;;;;;5.53;3.60;;;7.20;99.90;;;;;;5064378;28;20209;-80
2023/12/13 05:27:04;;;;;;;6.07;3.57;;;7.10;99.90;;;;;;5069831;28;20202;-80
2023/12/13 05:29:30;;;;;;;3.90;3.17;;;7.10;99.90;;;;;;5065174;28;20210;-80
2023/12/13 05:31:59;;;;;;;5.63;3.60;;;7.00;99.90;;;;;;5059754;28;20658;-80
2023/12/13 05:34:26;;;;;;;6.40;3.20;;;7.00;99.90;;;;;;5069294;28;20207;-79
2023/12/13 05:36:53;;;;;;;5.23;3.47;;;7.00;99.90;;;;;;5058665;28;20191;-80
2023/12/13 05:39:19;;;;;;;4.97;3.23;;;7.10;99.90;;;;;;5059455;28;20206;-80
2023/12/13 05:41:46;;;;;;;4.17;2.93;;;7.10;99.90;;;;;;5065580;28;20205;-78
2023/12/13 05:44:13;;;;;;;3.97;3.20;;;7.10;99.90;;;;;;5065890;28;20289;-80
2023/12/13 05:46:40;;;;;;;4.03;2.90;;;7.10;99.90;;;;;;5061240;28;20290;-80
2023/12/13 05:49:08;;;;;;;5.50;3.23;;;7.10;99.90;;;;;;5060961;28;20203;-79
2023/12/13 05:51:35;;;;;;;5.90;3.50;;;7.00;99.90;;;;;;5070267;28;20589;-79
2023/12/13 05:54:02;;;;;;;5.37;3.37;;;7.10;99.90;;;;;;5067036;28;20202;-79
2023/12/13 05:56:28;;;;;;;6.00;2.97;;;7.10;99.90;;;;;;5072393;28;20197;-80
2023/12/13 05:58:55;;;;;;;4.23;3.47;;;7.10;99.90;;;;;;5067308;28;20195;-80
2023/12/13 06:01:23;;;;;;;4.23;3.27;;;7.10;99.90;;;;;;5073028;28;20223;-80
2023/12/13 06:03:50;;;;;;;4.17;3.50;;;7.10;99.90;;;;;;5069448;28;20213;-80
2023/12/13 06:06:18;;;;;;;6.57;2.80;;;7.10;99.90;;;;;;5071327;28;20255;-80
2023/12/13 06:08:48;;;;;;;4.77;2.83;;;7.10;99.90;;;;;;5073385;28;20202;-79
2023/12/13 06:11:15;;;;;;;4.87;3.90;;;7.20;99.90;;;;;;5072707;28;20223;-80
2023/12/13 06:13:42;;;;;;;5.00;4.03;;;7.20;99.90;;;;;;5073959;28;20194;-79
2023/12/13 06:16:12;;;;;;;8.33;4.53;;;7.20;99.90;;;;;;5073121;28;20199;-79
2023/12/13 06:18:39;;;;;;;7.47;4.80;;;7.10;99.90;;;;;;5074840;28;20203;-80
2023/12/13 06:21:06;;;;;;;4.97;4.03;;;7.10;99.90;;;;;;5073799;28;20214;-78
2023/12/13 06:23:35;;;;;;;6.50;4.43;;;7.00;99.90;;;;;;5066956;28;20645;-79
2023/12/13 06:26:01;;;;;;;7.20;4.97;;;7.00;99.90;;;;;;5072265;28;20214;-78
2023/12/13 06:28:28;;;;;;;6.07;4.47;;;7.00;99.90;;;;;;5061488;28;20290;-79
2023/12/13 06:30:55;;;;;;;6.33;4.60;;;7.10;99.90;;;;;;5075752;28;20286;-80
2023/12/13 06:33:22;;;;;;;5.70;4.40;;;7.00;99.90;;;;;;5066985;28;20574;-79
2023/12/13 06:35:49;;;;;;;7.00;4.50;;;7.00;99.90;;;;;;5061099;28;20278;-80
2023/12/13 06:38:16;;;;;;;8.57;4.70;;;7.10;99.90;;;;;;5063060;28;20628;-80
2023/12/13 06:40:44;;;;;;;7.33;4.90;;;7.10;99.90;;;;;;5067072;28;20786;-80
2023/12/13 06:43:11;;;;;;;5.67;4.70;;;7.10;99.90;;;;;;5063524;28;20301;-80
2023/12/13 06:45:38;;;;;;;6.93;5.20;;;7.10;99.90;;;;;;5067881;28;20225;-79
2023/12/13 06:48:06;;;;;;;6.70;4.40;;;7.00;99.90;;;;;;5068415;28;20195;-80
2023/12/13 06:50:33;;;;;;;6.07;4.37;;;7.00;99.90;;;;;;5068368;28;20438;-80
2023/12/13 06:53:00;;;;;;;8.50;4.63;;;7.00;99.90;;;;;;5069124;28;20202;-79
2023/12/13 06:55:28;;;;;;;7.13;5.03;;;7.00;99.90;;;;;;5071470;28;20254;-80
2023/12/13 06:57:56;;;;;;;7.53;5.00;;;7.00;99.90;;;;;;5068377;28;20209;-80
2023/12/13 07:00:27;;;;;;;6.97;5.10;;;7.00;99.90;;;;;;5068405;28;20654;-80
2023/12/13 07:02:53;;;;;;;7.87;4.83;;;7.00;99.90;;;;;;5068182;28;20207;-78
2023/12/13 07:05:21;;;;;;;8.10;4.97;;;7.00;99.90;;;;;;5069086;28;20942;-79
2023/12/13 07:07:48;;;;;;;6.90;4.60;;;7.10;99.90;;;;;;5071044;28;20691;-79
2023/12/13 07:10:14;;;;;;;11.20;5.03;;;7.10;99.90;;;;;;5070546;28;20265;-80
2023/12/13 07:12:41;;;;;;;8.80;6.07;;;7.10;99.90;;;;;;5073277;28;20199;-80
2023/12/13 07:15:12;;;;;;;8.53;5.40;;;7.30;99.90;;;;;;5070741;28;20202;-78
2023/12/13 07:17:39;;;;;;;8.03;5.53;;;7.10;99.90;;;;;;5073933;28;20202;-79
2023/12/13 07:20:08;;;;;;;12.30;6.10;;;7.20;99.90;;;;;;5068705;28;20218;-79
2023/12/13 07:22:35;;;;;;;10.80;6.53;;;7.20;99.90;;;;;;5071474;28;20210;-78
2023/12/13 07:25:05;;;;;;;9.03;5.63;;;7.20;99.90;;;;;;5069587;28;20198;-80
2023/12/13 07:27:32;;;;;;;9.63;5.30;;;7.10;99.90;;;;;;5071389;28;20589;-80
2023/12/13 07:29:59;;;;;;;11.67;5.83;;;7.10;99.90;;;;;;5071703;28;20272;-79
2023/12/13 07:32:27;;;;;;;11.47;5.57;;;7.10;99.90;;;;;;5072113;28;20207;-80
2023/12/13 07:34:54;;;;;;;10.17;6.50;;;7.00;99.90;;;;;;5061992;28;20209;-79
2023/12/13 07:37:21;;;;;;;9.00;5.60;;;7.20;99.90;;;;;;5071766;28;20206;-78
2023/12/13 07:39:47;;;;;;;9.47;6.07;;;7.00;99.90;;;;;;5060311;28;20223;-78
2023/12/13 07:42:14;;;;;;;8.10;5.77;;;7.00;99.90;;;;;;5066348;28;20198;-79
2023/12/13 07:44:42;;;;;;;11.00;8.00;;;7.00;99.90;;;;;;5061711;28;20605;-78
2023/12/13 07:47:09;;;;;;;10.93;6.97;;;7.10;99.90;;;;;;5063664;28;20245;-80
2023/12/13 07:49:37;;;;;;;8.90;5.83;;;7.10;99.90;;;;;;5062324;28;20228;-79
2023/12/13 07:52:06;;;;;;;11.07;6.87;;;7.10;99.90;;;;;;5065717;28;20704;-80
2023/12/13 07:54:33;;;;;;;8.37;6.33;;;7.10;99.90;;;;;;5066036;28;20206;-80
2023/12/13 07:57:00;;;;;;;11.97;6.70;;;7.10;99.90;;;;;;5067490;28;20203;-80
2023/12/13 07:59:26;;;;;;;10.57;6.90;;;7.10;99.90;;;;;;5068130;28;20202;-80
2023/12/13 08:01:53;;;;;;;12.57;7.57;;;7.10;99.90;;;;;;5065928;28;20202;-79
2023/12/13 08:04:21;;;;;;;12.87;7.57;;;7.20;99.90;;;;;;5068096;28;20679;-78
2023/12/13 08:06:49;;;;;;;12.20;7.10;;;7.10;99.90;;;;;;5068447;28;20234;-78
2023/12/13 08:09:18;;;;;;;12.20;7.23;;;7.20;99.90;;;;;;5068147;28;20199;-78
2023/12/13 08:11:46;;;;;;;12.60;7.67;;;7.20;99.90;;;;;;5067402;28;20249;-78
2023/12/13 08:14:14;;;;;;;12.33;7.43;;;7.20;99.90;;;;;;5069832;28;20678;-79
2023/12/13 08:16:41;;;;;;;12.37;7.37;;;7.30;99.90;;;;;;5071016;28;20609;-80
2023/12/13 08:19:07;;;;;;;11.10;6.90;;;7.40;99.90;;;;;;5069472;28;20208;-80
2023/12/13 08:21:40;;;;;;;11.70;6.70;;;7.50;99.90;;;;;;5070872;28;20224;-80
2023/12/13 08:24:09;;;;;;;9.00;6.63;;;7.50;99.90;;;;;;5067398;28;20548;-80
2023/12/13 08:26:35;;;;;;;11.67;6.80;;;7.60;99.90;;;;;;5069163;28;20218;-80
2023/12/13 08:29:03;;;;;;;12.60;7.43;;;7.60;99.90;;;;;;5069957;28;20224;-79
2023/12/13 08:31:30;;;;;;;11.77;6.93;;;7.70;99.90;;;;;;5069274;28;20218;-79
2023/12/13 08:33:56;;;;;;;11.47;7.17;;;7.70;99.90;;;;;;5066264;28;20199;-80
2023/12/13 08:36:25;;;;;;;8.83;6.53;;;7.90;99.90;;;;;;5061431;28;20209;-80
2023/12/13 08:38:52;;;;;;;11.63;6.77;;;7.80;99.90;;;;;;5068432;28;20207;-80
2023/12/13 08:41:20;;;;;;;11.53;6.47;;;7.90;99.90;;;;;;5057360;28;20218;-79
2023/12/13 08:43:47;;;;;;;11.97;6.60;;;7.90;99.90;;;;;;5068412;28;20202;-80
2023/12/13 08:46:14;;;;;;;8.57;5.43;;;8.00;99.90;;;;;;5064918;28;20288;-80
2023/12/13 08:48:41;;;;;;;10.60;5.20;;;8.00;99.90;;;;;;5060221;28;20207;-80
2023/12/13 08:51:08;;;;;;;10.07;5.03;;;8.10;99.90;;;;;;5064640;28;20225;-80
2023/12/13 08:53:35;;;;;;;9.27;5.23;;;8.10;99.90;;;;;;5065712;28;20241;-80
2023/12/13 08:56:01;;;;;;;7.20;5.00;;;8.30;99.90;;;;;;5061601;28;20221;-79
2023/12/13 08:58:29;;;;;;;9.67;4.70;;;8.30;99.90;;;;;;5064905;28;20217;-79
2023/12/13 09:00:56;;;;;;;8.47;5.03;;;8.40;99.90;;;;;;5064187;28;20301;-79
2023/12/13 09:03:23;;;;;;;8.30;4.60;;;8.40;99.90;;;;;;5067619;28;20203;-80
2023/12/13 09:05:50;;;;;;;9.53;4.97;;;8.40;99.90;;;;;;5063680;28;20194;-80
2023/12/13 09:08:17;;;;;;;9.57;4.90;;;8.50;99.90;;;;;;5065844;28;20206;-79
2023/12/13 09:10:44;;;;;;;9.13;4.60;;;8.50;99.90;;;;;;5069191;28;20268;-79
2023/12/13 09:13:11;;;;;;;7.90;4.57;;;8.50;99.90;;;;;;5066607;28;20251;-78
2023/12/13 09:15:39;;;;;;;6.63;5.07;;;8.60;99.90;;;;;;5070017;28;20201;-80
2023/12/13 09:18:06;;;;;;;7.77;4.47;;;8.50;99.90;;;;;;5067800;28;20205;-80
2023/12/13 09:20:32;;;;;;;5.90;4.40;;;8.60;99.90;;;;;;5066542;28;20241;-80
2023/12/13 09:22:59;;;;;;;5.83;4.13;;;8.60;99.90;;;;;;5065748;28;20198;-80
2023/12/13 09:25:26;;;;;;;8.17;4.47;;;8.60;99.90;;;;;;5067742;28;20217;-80
2023/12/13 09:27:53;;;;;;;7.87;4.60;;;8.60;99.90;;;;;;5074517;28;20730;-80
2023/12/13 09:30:20;;;;;;;7.83;4.80;;;8.70;99.90;;;;;;5072023;28;20261;-80
2023/12/13 09:32:48;;;;;;;6.37;4.70;;;8.70;99.90;;;;;;5075493;28;20209;-80
2023/12/13 09:35:15;;;;;;;6.20;4.90;;;8.80;99.90;;;;;;5073701;28;20206;-80
2023/12/13 09:37:42;;;;;;;7.00;4.37;;;9.00;99.90;;;;;;5073493;28;20194;-79
2023/12/13 09:40:15;;;;;;;9.83;5.17;;;8.80;99.90;;;;;;5075795;28;20624;-79
2023/12/13 09:42:45;;;;;;;7.80;4.60;;;8.80;99.90;;;;;;5063606;28;20202;-79
2023/12/13 09:45:16;;;;;;;7.50;4.47;;;8.80;99.90;;;;;;5064444;28;20199;-79
2023/12/13 09:47:43;;;;;;;10.67;5.40;;;8.80;99.90;;;;;;5064512;28;20223;-79
2023/12/13 09:50:13;;;;;;;9.37;4.80;;;8.90;99.90;;;;;;5070991;28;20222;-79
2023/12/13 09:52:41;;;;;;;6.97;3.60;;;8.90;99.90;;;;;;5069477;28;20268;-79
2023/12/13 09:55:09;;;;;;;6.43;3.97;;;8.90;99.90;;;;;;5064818;28;20199;-79
2023/12/13 09:57:36;;;;;;;6.43;3.60;;;8.90;99.90;;;;;;5070399;28;20202;-80
2023/12/13 10:00:03;;;;;;;4.50;3.10;;;8.90;99.90;;;;;;5069431;28;20596;-80
2023/12/13 10:02:30;;;;;;;4.40;3.20;;;8.90;99.90;;;;;;5072811;28;20206;-78
2023/12/13 10:05:00;;;;;;;4.67;2.80;;;8.90;99.90;;;;;;5069426;28;20214;-80
2023/12/13 10:07:28;;;;;;;3.27;2.60;;;8.80;99.90;;;;;;5073368;28;20623;-80
2023/12/13 10:09:56;;;;;;;2.77;2.17;;;8.90;99.90;;;;;;5069804;28;20230;-79
2023/12/13 10:12:23;;;;;;;3.53;2.27;;;8.80;99.90;;;;;;5073490;28;20229;-79
2023/12/13 10:14:50;;;;;;;3.80;2.33;;;8.80;99.90;;;;;;5072440;28;20293;-80
2023/12/13 10:17:20;;;;;;;5.07;2.17;;;8.70;99.90;;;;;;5072553;28;20195;-80
2023/12/13 10:19:47;;;;;;;4.60;2.77;;;8.70;99.90;;;;;;5067364;28;20219;-80
2023/12/13 10:22:14;;;;;;;4.37;2.57;;;8.70;99.90;;;;;;5072504;28;20584;-80
2023/12/13 10:24:42;;;;;;;7.40;2.70;;;8.70;99.90;;;;;;5065416;28;20581;-80
2023/12/13 10:27:09;;;;;;;3.23;2.20;;;8.70;99.90;;;;;;5072683;28;20309;-80
2023/12/13 10:29:36;;;;;;;7.00;2.90;;;8.70;99.90;;;;;;5070638;28;20203;-81
2023/12/13 10:32:03;;;;;;;3.30;2.57;;;8.70;99.90;;;;;;5071484;28;20585;-78
2023/12/13 10:34:30;;;;;;;8.37;2.53;;;8.70;99.90;;;;;;5069851;28;20642;-80
2023/12/13 10:36:58;;;;;;;3.77;2.47;;;8.70;99.90;;;;;;5072200;28;20205;-80
2023/12/13 10:39:26;;;;;;;5.67;2.73;;;8.70;99.90;;;;;;5070060;28;20353;-79
2023/12/13 10:41:57;;;;;;;4.43;3.17;;;8.60;99.90;;;;;;5074664;28;20225;-80
2023/12/13 10:44:27;;;;;;;2.97;2.67;;;8.70;99.90;;;;;;5072573;28;20214;-80
2023/12/13 10:46:57;;;;;;;7.73;3.63;;;8.60;99.90;;;;;;5067435;28;20727;-80
2023/12/13 10:49:25;;;;;;;6.20;3.03;;;8.50;99.90;;;;;;5071570;28;20264;-80
2023/12/13 10:51:53;;;;;;;5.27;2.80;;;8.70;99.90;;;;;;5067984;28;20632;-80
2023/12/13 10:54:20;;;;;;;7.83;2.97;;;8.60;99.90;;;;;;5068353;28;20207;-79
2023/12/13 10:56:47;;;;;;;6.20;3.07;;;8.60;99.90;;;;;;5069089;28;20811;-78
2023/12/13 10:59:16;;;;;;;3.27;2.93;;;8.70;99.90;;;;;;5071597;28;20294;-79
2023/12/13 11:01:45;;;;;;;6.70;3.70;;;8.70;99.90;;;;;;5067082;28;20234;-78
2023/12/13 11:04:13;;;;;;;9.53;5.13;;;8.70;99.90;;;;;;5070126;28;20289;-78
2023/12/13 11:06:44;;;;;;;7.97;4.80;;;8.60;99.90;;;;;;5068560;28;20230;-81
2023/12/13 11:09:13;;;;;;;7.97;5.07;;;8.70;99.90;;;;;;5066701;28;20211;-79
2023/12/13 11:11:41;;;;;;;9.17;5.43;;;8.60;99.90;;;;;;5071290;28;20222;-80
2023/12/13 11:14:09;;;;;;;8.23;6.07;;;8.60;99.90;;;;;;5070763;28;20210;-81
2023/12/13 11:16:42;;;;;;;9.80;5.50;;;8.70;99.90;;;;;;5073613;28;20202;-79
2023/12/13 11:19:12;;;;;;;9.00;4.13;;;8.70;99.90;;;;;;5070621;28;20550;-80
2023/12/13 11:21:41;;;;;;;7.10;4.83;;;8.70;99.90;;;;;;5066630;28;20223;-80
2023/12/13 11:24:12;;;;;;;5.80;4.10;;;8.70;99.90;;;;;;5064287;28;20289;-80
2023/12/13 11:26:42;;;;;;;6.40;3.90;;;8.70;99.90;;;;;;5070222;28;20206;-78
2023/12/13 11:29:19;;;;;;;6.93;5.10;;;8.70;99.90;;;;;;5072826;28;20194;-80
2023/12/13 11:31:52;;;;;;;7.93;4.27;;;8.70;99.90;;;;;;5069896;28;20710;-80
2023/12/13 11:34:19;;;;;;;7.80;4.03;;;8.70;99.90;;;;;;5070771;28;20206;-78
2023/12/13 11:36:46;;;;;;;4.93;3.57;;;8.60;99.90;;;;;;5071622;28;20207;-78
2023/12/13 11:39:13;;;;;;;6.47;3.70;;;8.60;99.90;;;;;;5072483;28;20212;-80
2023/12/13 11:41:41;;;;;;;5.17;3.63;;;8.70;99.90;;;;;;5067483;28;20237;-79
2023/12/13 11:44:08;;;;;;;6.10;3.60;;;8.70;99.90;;;;;;5069893;28;20202;-78
2023/12/13 11:46:35;;;;;;;6.83;3.97;;;8.70;99.90;;;;;;5068346;28;20625;-79
2023/12/13 11:49:03;;;;;;;4.07;3.53;;;8.70;99.90;;;;;;5070781;28;20282;-80
2023/12/13 11:51:30;;;;;;;5.13;3.43;;;8.70;99.90;;;;;;5070211;28;20696;-80
2023/12/13 11:53:57;;;;;;;4.10;3.50;;;8.70;99.90;;;;;;5065881;28;20209;-80
2023/12/13 11:56:24;;;;;;;6.20;3.60;;;8.80;99.90;;;;;;5069676;28;20209;-80
2023/12/13 11:58:51;;;;;;;6.77;3.37;;;8.90;99.90;;;;;;5065398;28;20585;-80
2023/12/13 12:01:20;;;;;;;5.27;3.70;;;8.90;99.90;;;;;;5071118;28;20236;-79
2023/12/13 12:03:47;;;;;;;4.80;3.40;;;8.90;99.90;;;;;;5071176;28;20285;-79
2023/12/13 12:06:17;;;;;;;8.00;3.60;;;9.00;99.90;;;;;;5066913;28;20205;-78
2023/12/13 12:08:46;;;;;;;8.23;4.27;;;9.00;99.90;;;;;;5068981;28;20714;-80
2023/12/13 12:11:14;;;;;;;6.60;3.60;;;9.00;99.90;;;;;;5069376;28;20286;-80
2023/12/13 12:13:42;;;;;;;7.20;3.90;;;8.90;99.90;;;;;;5070451;28;20203;-80
2023/12/13 12:16:10;;;;;;;9.00;4.07;;;9.10;99.90;;;;;;5067368;28;20206;-80
2023/12/13 12:18:39;;;;;;;5.80;3.77;;;9.10;99.90;;;;;;5072074;28;20194;-80
2023/12/13 12:21:08;;;;;;;6.20;3.83;;;9.10;99.90;;;;;;5064736;28;20247;-79
2023/12/13 12:23:38;;;;;;;6.87;3.50;;;9.10;99.90;;;;;;5059727;28;20228;-80
2023/12/13 12:26:08;;;;;;;6.30;3.57;;;9.00;99.90;;;;;;5065480;28;20198;-80
2023/12/13 12:28:34;;;;;;;5.80;3.50;;;8.90;99.90;;;;;;5060945;28;20233;-80
2023/12/13 12:31:01;;;;;;;6.17;3.97;;;8.90;99.90;;;;;;5066592;28;20230;-78
2023/12/13 12:33:28;;;;;;;7.20;3.90;;;9.00;99.90;;;;;;5065830;28;20206;-79
2023/12/13 12:35:55;;;;;;;4.67;3.73;;;9.00;99.90;;;;;;5068756;28;20199;-80
2023/12/13 12:38:22;;;;;;;3.77;3.10;;;8.90;99.90;;;;;;5066849;28;20204;-80
2023/12/13 12:40:50;;;;;;;6.37;4.03;;;8.90;99.90;;;;;;5068544;28;20588;-80
2023/12/13 12:43:19;;;;;;;6.50;3.63;;;8.90;99.90;;;;;;5070367;28;20198;-81
2023/12/13 12:45:47;;;;;;;4.60;3.77;;;8.90;99.90;;;;;;5069718;28;20195;-81
2023/12/13 12:48:14;;;;;;;6.53;4.33;;;9.00;99.90;;;;;;5070875;28;20238;-81
2023/12/13 12:50:41;;;;;;;7.90;4.93;;;8.90;99.90;;;;;;5069543;28;20245;-81
2023/12/13 12:53:08;;;;;;;5.07;4.00;;;9.00;99.90;;;;;;5069727;28;20194;-80
2023/12/13 12:55:35;;;;;;;5.33;4.37;;;9.00;99.90;;;;;;5070281;28;20259;-80